sensor_id;sensor_type;location;lat;lon;timestamp;P1;durP1;ratioP1;P2;durP2;ratioP2
2658;SDS011;1339;53.304;10.406;2024-01-06T00:00:10;14.85;;;10.23;;
2658;SDS011;1339;53.304;10.406;2024-01-06T00:02:37;13.95;;;9.15;;
2658;SDS011;1339;53.304;10.406;2024-01-06T00:05:06;12.65;;;9.65;;
2658;SDS011;1339;53.304;10.406;2024-01-06T00:07:33;16.67;;;10.63;;
2658;SDS011;1339;53.304;10.406;2024-01-06T00:10:01;15.65;;;11.45;;
2658;SDS011;1339;53.304;10.406;2024-01-06T00:12:28;17.08;;;11.90;;
2658;SDS011;1339;53.304;10.406;2024-01-06T00:14:55;19.85;;;10.18;;
2658;SDS011;1339;53.304;10.406;2024-01-06T00:17:22;13.48;;;10.55;;
2658;SDS011;1339;53.304;10.406;2024-01-06T00:19:49;14.73;;;10.27;;
2658;SDS011;1339;53.304;10.406;2024-01-06T00:22:18;22.15;;;13.65;;
2658;SDS011;1339;53.304;10.406;2024-01-06T00:24:45;13.82;;;10.30;;
2658;SDS011;1339;53.304;10.406;2024-01-06T00:27:13;15.63;;;10.32;;
2658;SDS011;1339;53.304;10.406;2024-01-06T00:29:41;12.32;;;9.30;;
2658;SDS011;1339;53.304;10.406;2024-01-06T00:32:08;12.15;;;9.07;;
2658;SDS011;1339;53.304;10.406;2024-01-06T00:34:35;13.50;;;10.55;;
2658;SDS011;1339;53.304;10.406;2024-01-06T00:37:02;12.55;;;9.55;;
2658;SDS011;1339;53.304;10.406;2024-01-06T00:39:30;12.48;;;11.07;;
2658;SDS011;1339;53.304;10.406;2024-01-06T00:41:57;17.52;;;11.30;;
2658;SDS011;1339;53.304;10.406;2024-01-06T00:44:24;15.60;;;10.63;;
2658;SDS011;1339;53.304;10.406;2024-01-06T00:46:52;16.40;;;10.65;;
2658;SDS011;1339;53.304;10.406;2024-01-06T00:49:19;14.98;;;10.80;;
2658;SDS011;1339;53.304;10.406;2024-01-06T00:51:46;14.13;;;11.00;;
2658;SDS011;1339;53.304;10.406;2024-01-06T00:54:13;16.92;;;11.30;;
2658;SDS011;1339;53.304;10.406;2024-01-06T00:56:41;16.88;;;11.60;;
2658;SDS011;1339;53.304;10.406;2024-01-06T00:59:08;15.80;;;11.27;;
2658;SDS011;1339;53.304;10.406;2024-01-06T01:01:35;14.20;;;9.52;;
2658;SDS011;1339;53.304;10.406;2024-01-06T01:04:02;11.50;;;9.95;;
2658;SDS011;1339;53.304;10.406;2024-01-06T01:06:30;14.10;;;10.27;;
2658;SDS011;1339;53.304;10.406;2024-01-06T01:08:57;14.15;;;10.82;;
2658;SDS011;1339;53.304;10.406;2024-01-06T01:11:24;14.32;;;10.68;;
2658;SDS011;1339;53.304;10.406;2024-01-06T01:13:52;15.70;;;10.93;;
2658;SDS011;1339;53.304;10.406;2024-01-06T01:16:19;12.65;;;9.98;;
2658;SDS011;1339;53.304;10.406;2024-01-06T01:18:46;13.73;;;10.23;;
2658;SDS011;1339;53.304;10.406;2024-01-06T01:21:13;11.57;;;9.70;;
2658;SDS011;1339;53.304;10.406;2024-01-06T01:23:41;15.43;;;10.07;;
2658;SDS011;1339;53.304;10.406;2024-01-06T01:26:08;13.90;;;9.75;;
2658;SDS011;1339;53.304;10.406;2024-01-06T01:28:35;15.48;;;10.80;;
2658;SDS011;1339;53.304;10.406;2024-01-06T01:31:03;12.35;;;9.75;;
2658;SDS011;1339;53.304;10.406;2024-01-06T01:33:30;11.95;;;10.18;;
2658;SDS011;1339;53.304;10.406;2024-01-06T01:35:57;12.27;;;9.70;;
2658;SDS011;1339;53.304;10.406;2024-01-06T01:38:24;12.38;;;10.10;;
2658;SDS011;1339;53.304;10.406;2024-01-06T01:40:51;10.88;;;9.27;;
2658;SDS011;1339;53.304;10.406;2024-01-06T01:43:18;17.27;;;11.55;;
2658;SDS011;1339;53.304;10.406;2024-01-06T01:45:45;13.20;;;9.88;;
2658;SDS011;1339;53.304;10.406;2024-01-06T01:48:16;15.85;;;10.40;;
2658;SDS011;1339;53.304;10.406;2024-01-06T01:50:43;12.55;;;9.13;;
2658;SDS011;1339;53.304;10.406;2024-01-06T01:53:10;15.27;;;9.70;;
2658;SDS011;1339;53.304;10.406;2024-01-06T01:55:37;13.23;;;10.13;;
2658;SDS011;1339;53.304;10.406;2024-01-06T01:58:04;11.10;;;9.13;;
2658;SDS011;1339;53.304;10.406;2024-01-06T02:00:32;15.20;;;9.27;;
2658;SDS011;1339;53.304;10.406;2024-01-06T02:02:59;13.95;;;10.50;;
2658;SDS011;1339;53.304;10.406;2024-01-06T02:05:27;14.20;;;9.40;;
2658;SDS011;1339;53.304;10.406;2024-01-06T02:07:54;12.75;;;9.80;;
2658;SDS011;1339;53.304;10.406;2024-01-06T02:10:21;17.35;;;11.25;;
2658;SDS011;1339;53.304;10.406;2024-01-06T02:12:48;13.50;;;11.10;;
2658;SDS011;1339;53.304;10.406;2024-01-06T02:15:16;12.77;;;11.10;;
2658;SDS011;1339;53.304;10.406;2024-01-06T02:17:43;14.25;;;10.40;;
2658;SDS011;1339;53.304;10.406;2024-01-06T02:20:11;12.68;;;8.93;;
2658;SDS011;1339;53.304;10.406;2024-01-06T02:22:39;16.52;;;10.90;;
2658;SDS011;1339;53.304;10.406;2024-01-06T02:25:07;15.35;;;9.70;;
2658;SDS011;1339;53.304;10.406;2024-01-06T02:27:37;14.35;;;11.40;;
2658;SDS011;1339;53.304;10.406;2024-01-06T02:30:05;16.48;;;11.30;;
2658;SDS011;1339;53.304;10.406;2024-01-06T02:32:32;17.52;;;9.57;;
2658;SDS011;1339;53.304;10.406;2024-01-06T02:34:59;15.98;;;12.38;;
2658;SDS011;1339;53.304;10.406;2024-01-06T02:37:26;19.00;;;11.50;;
2658;SDS011;1339;53.304;10.406;2024-01-06T02:39:55;14.00;;;10.70;;
2658;SDS011;1339;53.304;10.406;2024-01-06T02:42:22;12.52;;;10.73;;
2658;SDS011;1339;53.304;10.406;2024-01-06T02:44:50;17.23;;;10.55;;
2658;SDS011;1339;53.304;10.406;2024-01-06T02:47:17;15.07;;;10.73;;
2658;SDS011;1339;53.304;10.406;2024-01-06T02:49:44;13.02;;;10.95;;
2658;SDS011;1339;53.304;10.406;2024-01-06T02:52:11;14.70;;;10.80;;
2658;SDS011;1339;53.304;10.406;2024-01-06T02:54:38;14.10;;;10.20;;
2658;SDS011;1339;53.304;10.406;2024-01-06T02:57:06;12.52;;;10.23;;
2658;SDS011;1339;53.304;10.406;2024-01-06T02:59:33;13.77;;;9.07;;
2658;SDS011;1339;53.304;10.406;2024-01-06T03:02:01;14.05;;;10.30;;
2658;SDS011;1339;53.304;10.406;2024-01-06T03:04:28;13.73;;;11.23;;
2658;SDS011;1339;53.304;10.406;2024-01-06T03:06:55;13.75;;;10.60;;
2658;SDS011;1339;53.304;10.406;2024-01-06T03:09:22;15.77;;;11.07;;
2658;SDS011;1339;53.304;10.406;2024-01-06T03:11:49;15.82;;;10.90;;
2658;SDS011;1339;53.304;10.406;2024-01-06T03:14:18;12.52;;;9.85;;
2658;SDS011;1339;53.304;10.406;2024-01-06T03:16:45;14.88;;;11.00;;
2658;SDS011;1339;53.304;10.406;2024-01-06T03:19:12;15.75;;;10.32;;
2658;SDS011;1339;53.304;10.406;2024-01-06T03:21:39;14.55;;;11.13;;
2658;SDS011;1339;53.304;10.406;2024-01-06T03:24:06;12.98;;;9.10;;
2658;SDS011;1339;53.304;10.406;2024-01-06T03:26:34;11.15;;;8.90;;
2658;SDS011;1339;53.304;10.406;2024-01-06T03:29:01;12.23;;;8.90;;
2658;SDS011;1339;53.304;10.406;2024-01-06T03:31:31;14.88;;;10.32;;
2658;SDS011;1339;53.304;10.406;2024-01-06T03:33:58;11.65;;;9.20;;
2658;SDS011;1339;53.304;10.406;2024-01-06T03:36:25;14.20;;;11.63;;
2658;SDS011;1339;53.304;10.406;2024-01-06T03:38:52;13.55;;;9.70;;
2658;SDS011;1339;53.304;10.406;2024-01-06T03:41:19;12.85;;;10.02;;
2658;SDS011;1339;53.304;10.406;2024-01-06T03:43:46;13.65;;;9.38;;
2658;SDS011;1339;53.304;10.406;2024-01-06T03:46:13;18.23;;;12.00;;
2658;SDS011;1339;53.304;10.406;2024-01-06T03:48:41;16.70;;;11.65;;
2658;SDS011;1339;53.304;10.406;2024-01-06T03:51:09;11.43;;;9.45;;
2658;SDS011;1339;53.304;10.406;2024-01-06T03:53:36;13.88;;;10.95;;
2658;SDS011;1339;53.304;10.406;2024-01-06T03:56:03;14.00;;;10.73;;
2658;SDS011;1339;53.304;10.406;2024-01-06T03:58:31;15.98;;;10.95;;
2658;SDS011;1339;53.304;10.406;2024-01-06T04:00:58;13.65;;;10.43;;
2658;SDS011;1339;53.304;10.406;2024-01-06T04:03:25;14.02;;;10.60;;
2658;SDS011;1339;53.304;10.406;2024-01-06T04:05:53;12.70;;;9.85;;
2658;SDS011;1339;53.304;10.406;2024-01-06T04:08:20;15.18;;;11.18;;
2658;SDS011;1339;53.304;10.406;2024-01-06T04:10:47;14.77;;;11.18;;
2658;SDS011;1339;53.304;10.406;2024-01-06T04:13:14;15.52;;;11.00;;
2658;SDS011;1339;53.304;10.406;2024-01-06T04:15:41;15.02;;;11.93;;
2658;SDS011;1339;53.304;10.406;2024-01-06T04:18:09;16.45;;;10.82;;
2658;SDS011;1339;53.304;10.406;2024-01-06T04:20:36;14.75;;;12.23;;
2658;SDS011;1339;53.304;10.406;2024-01-06T04:23:04;16.60;;;12.05;;
2658;SDS011;1339;53.304;10.406;2024-01-06T04:25:31;15.98;;;11.80;;
2658;SDS011;1339;53.304;10.406;2024-01-06T04:27:58;13.20;;;10.35;;
2658;SDS011;1339;53.304;10.406;2024-01-06T04:30:26;16.42;;;12.85;;
2658;SDS011;1339;53.304;10.406;2024-01-06T04:32:53;17.42;;;12.60;;
2658;SDS011;1339;53.304;10.406;2024-01-06T04:35:21;15.48;;;10.90;;
2658;SDS011;1339;53.304;10.406;2024-01-06T04:37:48;16.30;;;11.20;;
2658;SDS011;1339;53.304;10.406;2024-01-06T04:40:17;13.35;;;10.68;;
2658;SDS011;1339;53.304;10.406;2024-01-06T04:42:44;15.85;;;10.65;;
2658;SDS011;1339;53.304;10.406;2024-01-06T04:45:11;18.55;;;12.98;;
2658;SDS011;1339;53.304;10.406;2024-01-06T04:47:38;15.93;;;11.80;;
2658;SDS011;1339;53.304;10.406;2024-01-06T04:50:05;16.67;;;11.65;;
2658;SDS011;1339;53.304;10.406;2024-01-06T04:52:32;16.50;;;12.48;;
2658;SDS011;1339;53.304;10.406;2024-01-06T04:54:59;18.73;;;13.00;;
2658;SDS011;1339;53.304;10.406;2024-01-06T04:57:28;18.50;;;13.60;;
2658;SDS011;1339;53.304;10.406;2024-01-06T04:59:55;17.25;;;12.93;;
2658;SDS011;1339;53.304;10.406;2024-01-06T05:02:23;19.45;;;13.23;;
2658;SDS011;1339;53.304;10.406;2024-01-06T05:04:50;18.55;;;13.27;;
2658;SDS011;1339;53.304;10.406;2024-01-06T05:07:17;18.83;;;14.00;;
2658;SDS011;1339;53.304;10.406;2024-01-06T05:09:44;20.13;;;14.63;;
2658;SDS011;1339;53.304;10.406;2024-01-06T05:12:11;23.02;;;13.93;;
2658;SDS011;1339;53.304;10.406;2024-01-06T05:14:39;18.45;;;14.20;;
2658;SDS011;1339;53.304;10.406;2024-01-06T05:17:06;21.05;;;14.93;;
2658;SDS011;1339;53.304;10.406;2024-01-06T05:19:34;21.58;;;15.75;;
2658;SDS011;1339;53.304;10.406;2024-01-06T05:22:02;22.17;;;15.70;;
2658;SDS011;1339;53.304;10.406;2024-01-06T05:24:29;21.33;;;15.20;;
2658;SDS011;1339;53.304;10.406;2024-01-06T05:26:56;21.02;;;16.40;;
2658;SDS011;1339;53.304;10.406;2024-01-06T05:29:23;20.45;;;15.07;;
2658;SDS011;1339;53.304;10.406;2024-01-06T05:31:52;20.95;;;15.20;;
2658;SDS011;1339;53.304;10.406;2024-01-06T05:34:19;23.80;;;16.10;;
2658;SDS011;1339;53.304;10.406;2024-01-06T05:36:46;21.90;;;15.32;;
2658;SDS011;1339;53.304;10.406;2024-01-06T05:39:13;19.98;;;15.35;;
2658;SDS011;1339;53.304;10.406;2024-01-06T05:41:40;21.08;;;16.38;;
2658;SDS011;1339;53.304;10.406;2024-01-06T05:44:06;24.05;;;15.90;;
2658;SDS011;1339;53.304;10.406;2024-01-06T05:46:34;21.88;;;17.23;;
2658;SDS011;1339;53.304;10.406;2024-01-06T05:49:02;23.85;;;17.05;;
2658;SDS011;1339;53.304;10.406;2024-01-06T05:51:30;23.05;;;15.45;;
2658;SDS011;1339;53.304;10.406;2024-01-06T05:53:57;24.08;;;17.45;;
2658;SDS011;1339;53.304;10.406;2024-01-06T05:56:24;26.48;;;17.45;;
2658;SDS011;1339;53.304;10.406;2024-01-06T05:58:51;23.02;;;16.80;;
2658;SDS011;1339;53.304;10.406;2024-01-06T06:01:18;22.85;;;16.20;;
2658;SDS011;1339;53.304;10.406;2024-01-06T06:03:46;23.50;;;16.80;;
2658;SDS011;1339;53.304;10.406;2024-01-06T06:06:16;26.67;;;18.42;;
2658;SDS011;1339;53.304;10.406;2024-01-06T06:08:43;21.10;;;15.60;;
2658;SDS011;1339;53.304;10.406;2024-01-06T06:11:10;26.30;;;18.10;;
2658;SDS011;1339;53.304;10.406;2024-01-06T06:13:37;27.50;;;17.60;;
2658;SDS011;1339;53.304;10.406;2024-01-06T06:16:06;25.80;;;18.05;;
2658;SDS011;1339;53.304;10.406;2024-01-06T06:18:33;24.27;;;16.13;;
2658;SDS011;1339;53.304;10.406;2024-01-06T06:21:00;26.58;;;17.40;;
2658;SDS011;1339;53.304;10.406;2024-01-06T06:23:29;22.98;;;18.40;;
2658;SDS011;1339;53.304;10.406;2024-01-06T06:25:56;26.88;;;16.55;;
2658;SDS011;1339;53.304;10.406;2024-01-06T06:28:24;20.70;;;15.55;;
2658;SDS011;1339;53.304;10.406;2024-01-06T06:30:51;22.42;;;17.23;;
2658;SDS011;1339;53.304;10.406;2024-01-06T06:33:18;24.60;;;16.90;;
2658;SDS011;1339;53.304;10.406;2024-01-06T06:35:45;23.05;;;17.50;;
2658;SDS011;1339;53.304;10.406;2024-01-06T06:38:12;29.40;;;19.08;;
2658;SDS011;1339;53.304;10.406;2024-01-06T06:40:41;24.90;;;16.50;;
2658;SDS011;1339;53.304;10.406;2024-01-06T06:43:08;23.75;;;18.13;;
2658;SDS011;1339;53.304;10.406;2024-01-06T06:45:35;23.83;;;16.77;;
2658;SDS011;1339;53.304;10.406;2024-01-06T06:48:02;24.52;;;17.75;;
2658;SDS011;1339;53.304;10.406;2024-01-06T06:50:29;25.45;;;17.48;;
2658;SDS011;1339;53.304;10.406;2024-01-06T06:52:56;23.92;;;15.90;;
2658;SDS011;1339;53.304;10.406;2024-01-06T06:55:23;23.88;;;15.55;;
2658;SDS011;1339;53.304;10.406;2024-01-06T06:57:52;23.95;;;18.70;;
2658;SDS011;1339;53.304;10.406;2024-01-06T07:00:19;22.50;;;16.40;;
2658;SDS011;1339;53.304;10.406;2024-01-06T07:02:46;28.67;;;19.77;;
2658;SDS011;1339;53.304;10.406;2024-01-06T07:05:13;22.17;;;15.27;;
2658;SDS011;1339;53.304;10.406;2024-01-06T07:07:40;20.65;;;15.75;;
2658;SDS011;1339;53.304;10.406;2024-01-06T07:10:09;22.25;;;18.45;;
2658;SDS011;1339;53.304;10.406;2024-01-06T07:12:36;24.17;;;15.90;;
2658;SDS011;1339;53.304;10.406;2024-01-06T07:15:05;20.70;;;14.70;;
2658;SDS011;1339;53.304;10.406;2024-01-06T07:17:34;20.25;;;16.17;;
2658;SDS011;1339;53.304;10.406;2024-01-06T07:20:01;17.48;;;14.07;;
2658;SDS011;1339;53.304;10.406;2024-01-06T07:22:29;25.17;;;16.45;;
2658;SDS011;1339;53.304;10.406;2024-01-06T07:24:56;19.52;;;16.58;;
2658;SDS011;1339;53.304;10.406;2024-01-06T07:27:23;21.20;;;16.15;;
2658;SDS011;1339;53.304;10.406;2024-01-06T07:29:50;23.80;;;17.45;;
2658;SDS011;1339;53.304;10.406;2024-01-06T07:32:19;22.38;;;16.10;;
2658;SDS011;1339;53.304;10.406;2024-01-06T07:34:46;20.17;;;14.63;;
2658;SDS011;1339;53.304;10.406;2024-01-06T07:37:13;19.42;;;15.88;;
2658;SDS011;1339;53.304;10.406;2024-01-06T07:39:40;19.13;;;15.45;;
2658;SDS011;1339;53.304;10.406;2024-01-06T07:42:08;20.98;;;15.77;;
2658;SDS011;1339;53.304;10.406;2024-01-06T07:44:35;19.67;;;15.40;;
2658;SDS011;1339;53.304;10.406;2024-01-06T07:47:02;19.08;;;14.45;;
2658;SDS011;1339;53.304;10.406;2024-01-06T07:49:31;18.70;;;14.18;;
2658;SDS011;1339;53.304;10.406;2024-01-06T07:51:58;22.08;;;15.63;;
2658;SDS011;1339;53.304;10.406;2024-01-06T07:54:26;22.00;;;16.52;;
2658;SDS011;1339;53.304;10.406;2024-01-06T07:56:53;25.60;;;16.60;;
2658;SDS011;1339;53.304;10.406;2024-01-06T07:59:20;18.73;;;14.98;;
2658;SDS011;1339;53.304;10.406;2024-01-06T08:01:47;20.42;;;16.35;;
2658;SDS011;1339;53.304;10.406;2024-01-06T08:04:14;17.55;;;15.68;;
2658;SDS011;1339;53.304;10.406;2024-01-06T08:06:42;19.23;;;14.45;;
2658;SDS011;1339;53.304;10.406;2024-01-06T08:09:10;17.55;;;14.30;;
2658;SDS011;1339;53.304;10.406;2024-01-06T08:11:37;18.73;;;14.70;;
2658;SDS011;1339;53.304;10.406;2024-01-06T08:14:04;19.33;;;14.75;;
2658;SDS011;1339;53.304;10.406;2024-01-06T08:16:31;21.10;;;15.02;;
2658;SDS011;1339;53.304;10.406;2024-01-06T08:18:58;21.33;;;15.75;;
2658;SDS011;1339;53.304;10.406;2024-01-06T08:21:25;18.35;;;15.05;;
2658;SDS011;1339;53.304;10.406;2024-01-06T08:23:54;23.52;;;15.25;;
2658;SDS011;1339;53.304;10.406;2024-01-06T08:26:21;22.15;;;14.63;;
2658;SDS011;1339;53.304;10.406;2024-01-06T08:28:48;18.70;;;13.95;;
2658;SDS011;1339;53.304;10.406;2024-01-06T08:31:15;23.40;;;15.90;;
2658;SDS011;1339;53.304;10.406;2024-01-06T08:33:42;20.35;;;15.70;;
2658;SDS011;1339;53.304;10.406;2024-01-06T08:36:10;18.75;;;14.45;;
2658;SDS011;1339;53.304;10.406;2024-01-06T08:38:37;20.67;;;15.05;;
2658;SDS011;1339;53.304;10.406;2024-01-06T08:41:05;19.77;;;14.57;;
2658;SDS011;1339;53.304;10.406;2024-01-06T08:43:32;17.85;;;13.65;;
2658;SDS011;1339;53.304;10.406;2024-01-06T08:45:59;17.60;;;13.68;;
2658;SDS011;1339;53.304;10.406;2024-01-06T08:48:27;19.67;;;14.38;;
2658;SDS011;1339;53.304;10.406;2024-01-06T08:50:54;19.75;;;14.63;;
2658;SDS011;1339;53.304;10.406;2024-01-06T08:53:21;21.75;;;13.75;;
2658;SDS011;1339;53.304;10.406;2024-01-06T08:55:48;20.25;;;16.33;;
2658;SDS011;1339;53.304;10.406;2024-01-06T08:58:17;22.23;;;16.90;;
2658;SDS011;1339;53.304;10.406;2024-01-06T09:00:44;18.27;;;14.07;;
2658;SDS011;1339;53.304;10.406;2024-01-06T09:03:11;21.27;;;16.48;;
2658;SDS011;1339;53.304;10.406;2024-01-06T09:05:38;21.13;;;17.27;;
2658;SDS011;1339;53.304;10.406;2024-01-06T09:08:06;20.13;;;12.85;;
2658;SDS011;1339;53.304;10.406;2024-01-06T09:10:33;19.15;;;15.57;;
2658;SDS011;1339;53.304;10.406;2024-01-06T09:13:01;22.83;;;15.40;;
2658;SDS011;1339;53.304;10.406;2024-01-06T09:15:29;23.08;;;16.50;;
2658;SDS011;1339;53.304;10.406;2024-01-06T09:17:57;21.95;;;14.82;;
2658;SDS011;1339;53.304;10.406;2024-01-06T09:20:24;21.60;;;14.13;;
2658;SDS011;1339;53.304;10.406;2024-01-06T09:22:52;19.13;;;13.05;;
2658;SDS011;1339;53.304;10.406;2024-01-06T09:25:19;19.30;;;14.65;;
2658;SDS011;1339;53.304;10.406;2024-01-06T09:27:48;17.05;;;12.43;;
2658;SDS011;1339;53.304;10.406;2024-01-06T09:30:16;21.23;;;15.25;;
2658;SDS011;1339;53.304;10.406;2024-01-06T09:32:44;18.77;;;13.80;;
2658;SDS011;1339;53.304;10.406;2024-01-06T09:35:11;19.17;;;14.00;;
2658;SDS011;1339;53.304;10.406;2024-01-06T09:37:39;17.80;;;14.63;;
2658;SDS011;1339;53.304;10.406;2024-01-06T09:40:07;19.30;;;12.85;;
2658;SDS011;1339;53.304;10.406;2024-01-06T09:42:38;18.95;;;14.82;;
2658;SDS011;1339;53.304;10.406;2024-01-06T09:45:06;19.98;;;16.17;;
2658;SDS011;1339;53.304;10.406;2024-01-06T09:47:34;18.40;;;13.95;;
2658;SDS011;1339;53.304;10.406;2024-01-06T09:50:03;20.27;;;12.93;;
2658;SDS011;1339;53.304;10.406;2024-01-06T09:52:32;20.58;;;13.60;;
2658;SDS011;1339;53.304;10.406;2024-01-06T09:54:59;16.20;;;12.38;;
2658;SDS011;1339;53.304;10.406;2024-01-06T09:57:26;21.77;;;14.75;;
2658;SDS011;1339;53.304;10.406;2024-01-06T09:59:53;21.55;;;14.13;;
2658;SDS011;1339;53.304;10.406;2024-01-06T10:02:21;17.67;;;12.80;;
2658;SDS011;1339;53.304;10.406;2024-01-06T10:04:50;16.88;;;12.63;;
2658;SDS011;1339;53.304;10.406;2024-01-06T10:07:18;20.20;;;13.73;;
2658;SDS011;1339;53.304;10.406;2024-01-06T10:09:45;18.58;;;13.35;;
2658;SDS011;1339;53.304;10.406;2024-01-06T10:12:12;20.17;;;12.60;;
2658;SDS011;1339;53.304;10.406;2024-01-06T10:14:39;18.50;;;13.95;;
2658;SDS011;1339;53.304;10.406;2024-01-06T10:17:06;17.38;;;13.50;;
2658;SDS011;1339;53.304;10.406;2024-01-06T10:19:34;18.73;;;14.25;;
2658;SDS011;1339;53.304;10.406;2024-01-06T10:22:03;19.88;;;14.05;;
2658;SDS011;1339;53.304;10.406;2024-01-06T10:24:31;16.42;;;12.05;;
2658;SDS011;1339;53.304;10.406;2024-01-06T10:26:58;19.02;;;14.50;;
2658;SDS011;1339;53.304;10.406;2024-01-06T10:29:26;24.63;;;14.45;;
2658;SDS011;1339;53.304;10.406;2024-01-06T10:31:53;21.48;;;14.13;;
2658;SDS011;1339;53.304;10.406;2024-01-06T10:34:20;19.95;;;13.30;;
2658;SDS011;1339;53.304;10.406;2024-01-06T10:36:48;19.35;;;15.13;;
2658;SDS011;1339;53.304;10.406;2024-01-06T10:39:16;16.90;;;13.20;;
2658;SDS011;1339;53.304;10.406;2024-01-06T10:41:45;18.75;;;14.20;;
2658;SDS011;1339;53.304;10.406;2024-01-06T10:44:13;21.30;;;16.98;;
2658;SDS011;1339;53.304;10.406;2024-01-06T10:46:41;18.40;;;15.13;;
2658;SDS011;1339;53.304;10.406;2024-01-06T10:49:08;22.77;;;13.95;;
2658;SDS011;1339;53.304;10.406;2024-01-06T10:51:37;22.85;;;16.00;;
2658;SDS011;1339;53.304;10.406;2024-01-06T10:54:04;23.38;;;14.07;;
2658;SDS011;1339;53.304;10.406;2024-01-06T10:56:33;19.38;;;13.98;;
2658;SDS011;1339;53.304;10.406;2024-01-06T10:59:04;19.48;;;13.45;;
2658;SDS011;1339;53.304;10.406;2024-01-06T11:01:32;20.75;;;13.63;;
2658;SDS011;1339;53.304;10.406;2024-01-06T11:04:00;20.27;;;15.27;;
2658;SDS011;1339;53.304;10.406;2024-01-06T11:06:29;26.35;;;13.40;;
2658;SDS011;1339;53.304;10.406;2024-01-06T11:08:59;17.10;;;13.10;;
2658;SDS011;1339;53.304;10.406;2024-01-06T11:11:26;17.50;;;12.63;;
2658;SDS011;1339;53.304;10.406;2024-01-06T11:13:53;16.90;;;13.35;;
2658;SDS011;1339;53.304;10.406;2024-01-06T11:16:42;18.17;;;13.63;;
2658;SDS011;1339;53.304;10.406;2024-01-06T11:21:51;17.73;;;12.00;;
2658;SDS011;1339;53.304;10.406;2024-01-06T11:24:18;20.10;;;13.43;;
2658;SDS011;1339;53.304;10.406;2024-01-06T11:26:45;19.83;;;15.38;;
2658;SDS011;1339;53.304;10.406;2024-01-06T11:29:15;20.63;;;13.07;;
2658;SDS011;1339;53.304;10.406;2024-01-06T11:31:45;21.75;;;14.65;;
2658;SDS011;1339;53.304;10.406;2024-01-06T11:34:32;15.50;;;11.75;;
2658;SDS011;1339;53.304;10.406;2024-01-06T11:37:03;17.63;;;12.98;;
2658;SDS011;1339;53.304;10.406;2024-01-06T11:39:34;18.27;;;14.23;;
2658;SDS011;1339;53.304;10.406;2024-01-06T11:42:01;16.67;;;13.02;;
2658;SDS011;1339;53.304;10.406;2024-01-06T11:44:29;21.45;;;14.82;;
2658;SDS011;1339;53.304;10.406;2024-01-06T11:46:57;18.98;;;13.93;;
2658;SDS011;1339;53.304;10.406;2024-01-06T11:49:26;18.05;;;12.80;;
2658;SDS011;1339;53.304;10.406;2024-01-06T11:51:54;17.63;;;12.23;;
2658;SDS011;1339;53.304;10.406;2024-01-06T11:54:21;15.30;;;11.32;;
2658;SDS011;1339;53.304;10.406;2024-01-06T11:56:48;16.38;;;12.98;;
2658;SDS011;1339;53.304;10.406;2024-01-06T11:59:15;15.32;;;12.35;;
2658;SDS011;1339;53.304;10.406;2024-01-06T12:01:42;16.45;;;13.75;;
2658;SDS011;1339;53.304;10.406;2024-01-06T12:04:10;17.38;;;14.05;;
2658;SDS011;1339;53.304;10.406;2024-01-06T12:06:40;16.92;;;11.55;;
2658;SDS011;1339;53.304;10.406;2024-01-06T12:09:08;16.88;;;12.25;;
2658;SDS011;1339;53.304;10.406;2024-01-06T12:11:35;17.23;;;13.43;;
2658;SDS011;1339;53.304;10.406;2024-01-06T12:14:03;19.20;;;13.23;;
2658;SDS011;1339;53.304;10.406;2024-01-06T12:16:31;17.60;;;15.02;;
2658;SDS011;1339;53.304;10.406;2024-01-06T12:18:58;21.52;;;13.27;;
2658;SDS011;1339;53.304;10.406;2024-01-06T12:21:28;15.30;;;12.73;;
2658;SDS011;1339;53.304;10.406;2024-01-06T12:24:11;14.40;;;11.65;;
2658;SDS011;1339;53.304;10.406;2024-01-06T12:26:40;16.65;;;11.48;;
2658;SDS011;1339;53.304;10.406;2024-01-06T12:29:07;12.95;;;11.20;;
2658;SDS011;1339;53.304;10.406;2024-01-06T12:31:36;16.13;;;12.63;;
2658;SDS011;1339;53.304;10.406;2024-01-06T12:34:04;19.42;;;14.00;;
2658;SDS011;1339;53.304;10.406;2024-01-06T12:39:01;19.40;;;13.30;;
2658;SDS011;1339;53.304;10.406;2024-01-06T12:41:29;15.45;;;11.65;;
2658;SDS011;1339;53.304;10.406;2024-01-06T12:43:58;18.17;;;12.27;;
2658;SDS011;1339;53.304;10.406;2024-01-06T12:46:25;15.10;;;13.00;;
2658;SDS011;1339;53.304;10.406;2024-01-06T12:48:52;17.30;;;13.48;;
2658;SDS011;1339;53.304;10.406;2024-01-06T12:51:19;16.60;;;12.60;;
2658;SDS011;1339;53.304;10.406;2024-01-06T12:53:46;14.77;;;11.93;;
2658;SDS011;1339;53.304;10.406;2024-01-06T12:56:14;18.02;;;13.02;;
2658;SDS011;1339;53.304;10.406;2024-01-06T12:58:42;17.05;;;13.70;;
2658;SDS011;1339;53.304;10.406;2024-01-06T13:01:09;18.75;;;12.43;;
2658;SDS011;1339;53.304;10.406;2024-01-06T13:03:36;17.30;;;12.68;;
2658;SDS011;1339;53.304;10.406;2024-01-06T13:06:03;17.30;;;12.07;;
2658;SDS011;1339;53.304;10.406;2024-01-06T13:08:30;16.48;;;13.40;;
2658;SDS011;1339;53.304;10.406;2024-01-06T13:10:57;23.73;;;13.70;;
2658;SDS011;1339;53.304;10.406;2024-01-06T13:13:26;17.23;;;13.02;;
2658;SDS011;1339;53.304;10.406;2024-01-06T13:15:53;13.25;;;11.23;;
2658;SDS011;1339;53.304;10.406;2024-01-06T13:18:20;16.48;;;12.05;;
2658;SDS011;1339;53.304;10.406;2024-01-06T13:20:46;16.67;;;12.15;;
2658;SDS011;1339;53.304;10.406;2024-01-06T13:23:14;13.68;;;11.18;;
2658;SDS011;1339;53.304;10.406;2024-01-06T13:25:42;14.10;;;11.40;;
2658;SDS011;1339;53.304;10.406;2024-01-06T13:28:09;16.73;;;11.57;;
2658;SDS011;1339;53.304;10.406;2024-01-06T13:30:38;17.10;;;13.85;;
2658;SDS011;1339;53.304;10.406;2024-01-06T13:33:06;18.33;;;12.10;;
2658;SDS011;1339;53.304;10.406;2024-01-06T13:35:35;13.75;;;11.38;;
2658;SDS011;1339;53.304;10.406;2024-01-06T13:38:02;13.50;;;10.82;;
2658;SDS011;1339;53.304;10.406;2024-01-06T13:40:30;15.18;;;10.82;;
2658;SDS011;1339;53.304;10.406;2024-01-06T13:42:57;15.82;;;11.38;;
2658;SDS011;1339;53.304;10.406;2024-01-06T13:45:24;15.98;;;12.40;;
2658;SDS011;1339;53.304;10.406;2024-01-06T13:47:53;13.30;;;10.05;;
2658;SDS011;1339;53.304;10.406;2024-01-06T13:50:20;14.10;;;10.82;;
2658;SDS011;1339;53.304;10.406;2024-01-06T13:52:47;12.50;;;10.55;;
2658;SDS011;1339;53.304;10.406;2024-01-06T13:55:14;15.15;;;9.88;;
2658;SDS011;1339;53.304;10.406;2024-01-06T13:57:41;13.70;;;9.68;;
2658;SDS011;1339;53.304;10.406;2024-01-06T14:00:08;11.90;;;9.35;;
2658;SDS011;1339;53.304;10.406;2024-01-06T14:02:36;13.00;;;10.35;;
2658;SDS011;1339;53.304;10.406;2024-01-06T14:05:05;12.65;;;9.02;;
2658;SDS011;1339;53.304;10.406;2024-01-06T14:07:33;15.88;;;10.05;;
2658;SDS011;1339;53.304;10.406;2024-01-06T14:10:00;11.40;;;9.50;;
2658;SDS011;1339;53.304;10.406;2024-01-06T14:12:28;12.85;;;10.68;;
2658;SDS011;1339;53.304;10.406;2024-01-06T14:14:56;10.60;;;8.80;;
2658;SDS011;1339;53.304;10.406;2024-01-06T14:17:23;15.38;;;10.80;;
2658;SDS011;1339;53.304;10.406;2024-01-06T14:19:50;15.20;;;9.52;;
2658;SDS011;1339;53.304;10.406;2024-01-06T14:22:19;12.40;;;8.95;;
2658;SDS011;1339;53.304;10.406;2024-01-06T14:24:46;10.50;;;9.43;;
2658;SDS011;1339;53.304;10.406;2024-01-06T14:27:14;18.10;;;11.93;;
2658;SDS011;1339;53.304;10.406;2024-01-06T14:29:42;17.33;;;11.40;;
2658;SDS011;1339;53.304;10.406;2024-01-06T14:32:09;14.15;;;11.05;;
2658;SDS011;1339;53.304;10.406;2024-01-06T14:34:36;18.08;;;10.90;;
2658;SDS011;1339;53.304;10.406;2024-01-06T14:37:03;13.82;;;10.57;;
2658;SDS011;1339;53.304;10.406;2024-01-06T14:39:31;12.52;;;9.63;;
2658;SDS011;1339;53.304;10.406;2024-01-06T14:42:00;14.07;;;9.35;;